sensor_id;sensor_type;location;lat;lon;timestamp;pressure;altitude;pressure_sealevel;temperature;humidity
75740;BME280;64357;51.344;6.550;2023-07-16T00:00:09;100481.97;;;18.54;100.00
75740;BME280;64357;51.344;6.550;2023-07-16T00:02:38;100494.91;;;18.41;100.00
75740;BME280;64357;51.344;6.550;2023-07-16T00:05:04;100507.75;;;18.39;100.00
75740;BME280;64357;51.344;6.550;2023-07-16T00:07:29;100511.16;;;18.38;100.00
75740;BME280;64357;51.344;6.550;2023-07-16T00:09:57;100511.66;;;18.32;100.00
75740;BME280;64357;51.344;6.550;2023-07-16T00:12:25;100496.84;;;18.30;100.00
75740;BME280;64357;51.344;6.550;2023-07-16T00:14:50;100493.25;;;18.41;100.00
75740;BME280;64357;51.344;6.550;2023-07-16T00:17:16;100496.69;;;18.55;100.00
75740;BME280;64357;51.344;6.550;2023-07-16T00:19:42;100499.88;;;18.51;100.00
75740;BME280;64357;51.344;6.550;2023-07-16T00:22:12;100484.81;;;18.58;100.00
75740;BME280;64357;51.344;6.550;2023-07-16T00:24:37;100465.28;;;18.63;100.00
75740;BME280;64357;51.344;6.550;2023-07-16T00:27:02;100466.44;;;18.67;100.00
75740;BME280;64357;51.344;6.550;2023-07-16T00:29:30;100475.09;;;18.54;100.00
75740;BME280;64357;51.344;6.550;2023-07-16T00:31:55;100474.53;;;18.45;100.00
75740;BME280;64357;51.344;6.550;2023-07-16T00:34:21;100494.16;;;18.42;100.00
75740;BME280;64357;51.344;6.550;2023-07-16T00:36:48;100507.47;;;18.48;100.00
75740;BME280;64357;51.344;6.550;2023-07-16T00:39:14;100500.88;;;18.53;100.00
75740;BME280;64357;51.344;6.550;2023-07-16T00:41:39;100510.31;;;18.52;100.00
75740;BME280;64357;51.344;6.550;2023-07-16T00:44:07;100505.19;;;18.39;100.00
75740;BME280;64357;51.344;6.550;2023-07-16T00:46:35;100506.50;;;18.32;100.00
75740;BME280;64357;51.344;6.550;2023-07-16T00:49:04;100512.84;;;18.37;100.00
75740;BME280;64357;51.344;6.550;2023-07-16T00:51:29;100505.88;;;18.36;100.00
75740;BME280;64357;51.344;6.550;2023-07-16T00:53:56;100514.34;;;18.34;100.00
75740;BME280;64357;51.344;6.550;2023-07-16T00:56:21;100510.69;;;18.30;100.00
75740;BME280;64357;51.344;6.550;2023-07-16T00:58:47;100499.16;;;18.25;100.00
75740;BME280;64357;51.344;6.550;2023-07-16T01:01:12;100513.06;;;18.27;100.00
75740;BME280;64357;51.344;6.550;2023-07-16T01:03:38;100504.72;;;18.18;100.00
75740;BME280;64357;51.344;6.550;2023-07-16T01:06:18;100511.69;;;18.19;100.00
75740;BME280;64357;51.344;6.550;2023-07-16T01:09:10;100509.41;;;17.97;100.00
75740;BME280;64357;51.344;6.550;2023-07-16T01:11:42;100506.03;;;17.98;100.00
75740;BME280;64357;51.344;6.550;2023-07-16T01:14:10;100503.16;;;18.07;100.00
75740;BME280;64357;51.344;6.550;2023-07-16T01:16:37;100509.81;;;18.03;100.00
75740;BME280;64357;51.344;6.550;2023-07-16T01:19:05;100506.03;;;17.85;100.00
75740;BME280;64357;51.344;6.550;2023-07-16T01:30:08;100500.78;;;17.83;100.00
75740;BME280;64357;51.344;6.550;2023-07-16T01:32:36;100515.09;;;17.78;100.00
75740;BME280;64357;51.344;6.550;2023-07-16T01:35:04;100521.03;;;17.91;100.00
75740;BME280;64357;51.344;6.550;2023-07-16T01:37:35;100524.94;;;17.84;100.00
75740;BME280;64357;51.344;6.550;2023-07-16T01:40:03;100516.38;;;17.85;100.00
75740;BME280;64357;51.344;6.550;2023-07-16T01:42:33;100513.88;;;17.87;100.00
75740;BME280;64357;51.344;6.550;2023-07-16T01:44:59;100519.34;;;17.91;100.00
75740;BME280;64357;51.344;6.550;2023-07-16T01:50:22;100534.06;;;18.05;100.00
75740;BME280;64357;51.344;6.550;2023-07-16T01:52:48;100527.50;;;17.97;100.00
75740;BME280;64357;51.344;6.550;2023-07-16T01:55:13;100529.81;;;18.06;100.00
75740;BME280;64357;51.344;6.550;2023-07-16T01:57:38;100521.44;;;17.97;100.00
75740;BME280;64357;51.344;6.550;2023-07-16T02:00:07;100529.47;;;17.88;100.00
75740;BME280;64357;51.344;6.550;2023-07-16T02:02:33;100528.84;;;17.66;100.00
75740;BME280;64357;51.344;6.550;2023-07-16T02:04:58;100525.03;;;17.72;100.00
75740;BME280;64357;51.344;6.550;2023-07-16T02:07:24;100517.22;;;17.59;100.00
75740;BME280;64357;51.344;6.550;2023-07-16T02:09:49;100524.59;;;17.66;100.00
75740;BME280;64357;51.344;6.550;2023-07-16T02:12:15;100520.09;;;17.64;100.00
75740;BME280;64357;51.344;6.550;2023-07-16T02:14:40;100528.22;;;17.56;100.00
75740;BME280;64357;51.344;6.550;2023-07-16T02:17:07;100530.22;;;17.47;100.00
75740;BME280;64357;51.344;6.550;2023-07-16T02:19:35;100511.19;;;17.33;100.00
75740;BME280;64357;51.344;6.550;2023-07-16T02:22:03;100531.34;;;17.26;100.00
75740;BME280;64357;51.344;6.550;2023-07-16T02:24:30;100533.84;;;17.24;100.00
75740;BME280;64357;51.344;6.550;2023-07-16T02:26:56;100537.84;;;17.08;100.00
75740;BME280;64357;51.344;6.550;2023-07-16T02:29:21;100553.38;;;17.21;100.00
75740;BME280;64357;51.344;6.550;2023-07-16T02:31:46;100561.59;;;17.15;100.00
75740;BME280;64357;51.344;6.550;2023-07-16T02:34:13;100547.06;;;17.04;100.00
75740;BME280;64357;51.344;6.550;2023-07-16T02:36:39;100560.78;;;17.16;100.00
75740;BME280;64357;51.344;6.550;2023-07-16T02:39:04;100568.16;;;17.23;100.00
75740;BME280;64357;51.344;6.550;2023-07-16T02:41:32;100567.31;;;17.11;100.00
75740;BME280;64357;51.344;6.550;2023-07-16T02:44:01;100566.44;;;17.11;100.00
75740;BME280;64357;51.344;6.550;2023-07-16T02:46:27;100572.63;;;17.13;100.00
75740;BME280;64357;51.344;6.550;2023-07-16T02:48:52;100578.13;;;17.05;100.00
75740;BME280;64357;51.344;6.550;2023-07-16T02:51:18;100575.25;;;17.01;100.00
75740;BME280;64357;51.344;6.550;2023-07-16T02:53:43;100575.25;;;17.01;100.00
75740;BME280;64357;51.344;6.550;2023-07-16T02:56:08;100587.81;;;16.96;100.00
75740;BME280;64357;51.344;6.550;2023-07-16T02:58:36;100582.84;;;16.99;100.00
75740;BME280;64357;51.344;6.550;2023-07-16T03:01:04;100579.06;;;16.94;100.00
75740;BME280;64357;51.344;6.550;2023-07-16T03:03:29;100575.47;;;16.92;100.00
75740;BME280;64357;51.344;6.550;2023-07-16T03:05:55;100584.81;;;16.90;100.00
75740;BME280;64357;51.344;6.550;2023-07-16T03:08:20;100579.66;;;16.90;100.00
75740;BME280;64357;51.344;6.550;2023-07-16T03:10:45;100591.66;;;16.90;100.00
75740;BME280;64357;51.344;6.550;2023-07-16T03:13:11;100592.31;;;16.87;100.00
75740;BME280;64357;51.344;6.550;2023-07-16T03:15:36;100589.75;;;16.87;100.00
75740;BME280;64357;51.344;6.550;2023-07-16T03:18:01;100596.47;;;16.97;100.00
75740;BME280;64357;51.344;6.550;2023-07-16T03:20:27;100594.31;;;17.03;100.00
75740;BME280;64357;51.344;6.550;2023-07-16T03:22:54;100600.13;;;17.12;100.00
75740;BME280;64357;51.344;6.550;2023-07-16T03:25:20;100600.13;;;17.12;100.00
75740;BME280;64357;51.344;6.550;2023-07-16T03:27:45;100599.00;;;17.09;100.00
75740;BME280;64357;51.344;6.550;2023-07-16T03:30:11;100601.25;;;17.04;100.00
75740;BME280;64357;51.344;6.550;2023-07-16T03:32:36;100597.53;;;17.12;100.00
75740;BME280;64357;51.344;6.550;2023-07-16T03:35:04;100606.28;;;17.14;100.00
75740;BME280;64357;51.344;6.550;2023-07-16T03:37:29;100604.94;;;17.08;100.00
75740;BME280;64357;51.344;6.550;2023-07-16T03:39:55;100603.25;;;17.08;100.00
75740;BME280;64357;51.344;6.550;2023-07-16T03:42:22;100611.03;;;16.96;100.00
75740;BME280;64357;51.344;6.550;2023-07-16T03:44:48;100624.38;;;17.02;100.00
75740;BME280;64357;51.344;6.550;2023-07-16T03:47:13;100631.88;;;16.99;100.00
75740;BME280;64357;51.344;6.550;2023-07-16T03:49:38;100622.19;;;16.84;100.00
75740;BME280;64357;51.344;6.550;2023-07-16T03:52:04;100632.16;;;16.91;100.00
75740;BME280;64357;51.344;6.550;2023-07-16T03:54:29;100635.81;;;16.94;100.00
75740;BME280;64357;51.344;6.550;2023-07-16T03:56:55;100641.69;;;16.92;100.00
75740;BME280;64357;51.344;6.550;2023-07-16T03:59:22;100637.94;;;17.00;100.00
75740;BME280;64357;51.344;6.550;2023-07-16T04:01:48;100641.44;;;17.00;100.00
75740;BME280;64357;51.344;6.550;2023-07-16T04:04:13;100652.19;;;17.07;100.00
75740;BME280;64357;51.344;6.550;2023-07-16T04:06:39;100642.97;;;17.10;99.37
75740;BME280;64357;51.344;6.550;2023-07-16T04:09:06;100652.41;;;17.10;98.59
75740;BME280;64357;51.344;6.550;2023-07-16T04:11:33;100654.78;;;17.07;98.80
75740;BME280;64357;51.344;6.550;2023-07-16T04:13:59;100652.06;;;17.05;98.71
75740;BME280;64357;51.344;6.550;2023-07-16T04:16:24;100656.56;;;17.08;98.59
75740;BME280;64357;51.344;6.550;2023-07-16T04:18:49;100662.53;;;17.07;98.33
75740;BME280;64357;51.344;6.550;2023-07-16T04:21:17;100666.91;;;17.08;98.55
75740;BME280;64357;51.344;6.550;2023-07-16T04:23:47;100675.00;;;17.00;100.00
75740;BME280;64357;51.344;6.550;2023-07-16T04:26:12;100669.16;;;17.03;98.36
75740;BME280;64357;51.344;6.550;2023-07-16T04:28:37;100675.56;;;16.96;98.95
75740;BME280;64357;51.344;6.550;2023-07-16T04:31:04;100673.78;;;16.84;100.00
75740;BME280;64357;51.344;6.550;2023-07-16T04:33:29;100670.84;;;16.91;98.71
75740;BME280;64357;51.344;6.550;2023-07-16T04:35:55;100690.34;;;16.99;96.40
75740;BME280;64357;51.344;6.550;2023-07-16T04:38:20;100674.50;;;17.06;95.04
75740;BME280;64357;51.344;6.550;2023-07-16T04:40:45;100673.94;;;17.10;95.17
75740;BME280;64357;51.344;6.550;2023-07-16T04:43:11;100685.50;;;17.15;93.48
75740;BME280;64357;51.344;6.550;2023-07-16T04:45:36;100680.53;;;17.30;93.21
75740;BME280;64357;51.344;6.550;2023-07-16T04:48:02;100687.66;;;17.34;92.93
75740;BME280;64357;51.344;6.550;2023-07-16T04:50:27;100690.06;;;17.31;93.19
75740;BME280;64357;51.344;6.550;2023-07-16T04:52:52;100687.09;;;17.38;92.82
75740;BME280;64357;51.344;6.550;2023-07-16T04:55:20;100699.22;;;17.39;92.50
75740;BME280;64357;51.344;6.550;2023-07-16T04:57:45;100700.72;;;17.36;92.70
75740;BME280;64357;51.344;6.550;2023-07-16T05:00:13;100695.31;;;17.32;93.19
75740;BME280;64357;51.344;6.550;2023-07-16T05:02:39;100705.75;;;17.34;93.88
75740;BME280;64357;51.344;6.550;2023-07-16T05:05:04;100706.41;;;17.43;92.48
75740;BME280;64357;51.344;6.550;2023-07-16T05:07:33;100715.72;;;17.41;92.23
75740;BME280;64357;51.344;6.550;2023-07-16T05:10:01;100712.03;;;17.38;92.23
75740;BME280;64357;51.344;6.550;2023-07-16T05:12:26;100726.13;;;17.54;92.09
75740;BME280;64357;51.344;6.550;2023-07-16T05:17:17;100716.03;;;17.46;91.98
75740;BME280;64357;51.344;6.550;2023-07-16T05:19:42;100726.56;;;17.61;91.25
75740;BME280;64357;51.344;6.550;2023-07-16T05:22:07;100726.13;;;17.54;90.65
75740;BME280;64357;51.344;6.550;2023-07-16T05:24:33;100736.09;;;17.62;90.52
75740;BME280;64357;51.344;6.550;2023-07-16T05:26:58;100726.09;;;17.66;89.63
75740;BME280;64357;51.344;6.550;2023-07-16T05:29:26;100734.72;;;17.78;88.78
75740;BME280;64357;51.344;6.550;2023-07-16T05:31:52;100742.38;;;17.77;88.73
75740;BME280;64357;51.344;6.550;2023-07-16T05:34:17;100715.94;;;17.69;89.52
75740;BME280;64357;51.344;6.550;2023-07-16T05:36:43;100740.91;;;17.94;87.36
75740;BME280;64357;51.344;6.550;2023-07-16T05:39:11;100750.00;;;18.00;86.79
75740;BME280;64357;51.344;6.550;2023-07-16T05:41:39;100744.03;;;18.01;85.71
75740;BME280;64357;51.344;6.550;2023-07-16T05:44:05;100754.25;;;18.00;86.02
75740;BME280;64357;51.344;6.550;2023-07-16T05:46:30;100746.22;;;17.95;85.01
75740;BME280;64357;51.344;6.550;2023-07-16T05:48:56;100750.63;;;18.09;84.17
75740;BME280;64357;51.344;6.550;2023-07-16T05:51:24;100739.03;;;17.91;84.87
75740;BME280;64357;51.344;6.550;2023-07-16T05:53:54;100744.53;;;18.09;84.23
75740;BME280;64357;51.344;6.550;2023-07-16T05:56:19;100745.38;;;18.21;82.77
75740;BME280;64357;51.344;6.550;2023-07-16T05:58:45;100756.22;;;18.29;82.33
75740;BME280;64357;51.344;6.550;2023-07-16T06:01:10;100762.50;;;18.32;82.01
75740;BME280;64357;51.344;6.550;2023-07-16T06:03:36;100755.25;;;18.40;80.56
75740;BME280;64357;51.344;6.550;2023-07-16T06:06:01;100769.38;;;18.45;81.23
75740;BME280;64357;51.344;6.550;2023-07-16T06:08:26;100758.63;;;18.39;81.35
75740;BME280;64357;51.344;6.550;2023-07-16T06:10:55;100747.22;;;18.35;80.48
75740;BME280;64357;51.344;6.550;2023-07-16T06:13:20;100758.06;;;18.43;78.61
75740;BME280;64357;51.344;6.550;2023-07-16T06:15:47;100761.13;;;18.37;79.18
75740;BME280;64357;51.344;6.550;2023-07-16T06:18:12;100762.44;;;18.44;78.55
75740;BME280;64357;51.344;6.550;2023-07-16T06:20:37;100765.91;;;18.45;78.01
75740;BME280;64357;51.344;6.550;2023-07-16T06:23:05;100764.44;;;18.48;78.28
75740;BME280;64357;51.344;6.550;2023-07-16T06:25:31;100754.50;;;18.54;77.27
75740;BME280;64357;51.344;6.550;2023-07-16T06:28:01;100773.69;;;18.58;76.83
75740;BME280;64357;51.344;6.550;2023-07-16T06:30:29;100773.41;;;18.67;76.95
75740;BME280;64357;51.344;6.550;2023-07-16T06:32:58;100775.06;;;18.78;76.69
75740;BME280;64357;51.344;6.550;2023-07-16T06:35:23;100770.38;;;18.72;76.77
75740;BME280;64357;51.344;6.550;2023-07-16T06:37:49;100789.38;;;18.73;76.22
75740;BME280;64357;51.344;6.550;2023-07-16T06:40:14;100784.09;;;18.84;74.99
75740;BME280;64357;51.344;6.550;2023-07-16T06:42:40;100785.41;;;18.78;74.21
75740;BME280;64357;51.344;6.550;2023-07-16T06:45:06;100777.94;;;18.82;74.86
75740;BME280;64357;51.344;6.550;2023-07-16T06:47:34;100771.16;;;18.84;73.86
75740;BME280;64357;51.344;6.550;2023-07-16T06:49:59;100793.56;;;18.97;73.95
75740;BME280;64357;51.344;6.550;2023-07-16T06:52:24;100780.03;;;19.01;73.05
75740;BME280;64357;51.344;6.550;2023-07-16T06:54:53;100796.88;;;18.95;72.74
75740;BME280;64357;51.344;6.550;2023-07-16T06:57:21;100794.03;;;19.05;73.00
75740;BME280;64357;51.344;6.550;2023-07-16T07:02:37;100782.13;;;19.07;71.86
75740;BME280;64357;51.344;6.550;2023-07-16T07:05:02;100773.34;;;19.05;70.82
75740;BME280;64357;51.344;6.550;2023-07-16T07:07:28;100801.41;;;19.38;70.82
75740;BME280;64357;51.344;6.550;2023-07-16T07:09:55;100799.47;;;19.49;69.27
75740;BME280;64357;51.344;6.550;2023-07-16T07:12:20;100801.56;;;19.55;69.18
75740;BME280;64357;51.344;6.550;2023-07-16T07:14:49;100810.66;;;19.61;68.55
75740;BME280;64357;51.344;6.550;2023-07-16T07:17:14;100806.13;;;19.72;66.87
75740;BME280;64357;51.344;6.550;2023-07-16T07:19:41;100807.41;;;19.79;66.45
75740;BME280;64357;51.344;6.550;2023-07-16T07:22:09;100815.63;;;20.00;66.23
75740;BME280;64357;51.344;6.550;2023-07-16T07:24:37;100817.00;;;20.95;63.25
75740;BME280;64357;51.344;6.550;2023-07-16T07:27:03;100812.34;;;21.66;60.32
75740;BME280;64357;51.344;6.550;2023-07-16T07:29:31;100807.19;;;21.99;57.87
75740;BME280;64357;51.344;6.550;2023-07-16T07:32:05;100802.03;;;22.33;56.98
75740;BME280;64357;51.344;6.550;2023-07-16T07:34:43;100823.09;;;22.54;56.16
75740;BME280;64357;51.344;6.550;2023-07-16T07:37:11;100819.63;;;23.05;54.49
75740;BME280;64357;51.344;6.550;2023-07-16T07:39:42;100813.16;;;23.52;53.33
75740;BME280;64357;51.344;6.550;2023-07-16T07:42:10;100815.41;;;23.45;51.77
75740;BME280;64357;51.344;6.550;2023-07-16T07:44:46;100819.38;;;23.36;52.22
75740;BME280;64357;51.344;6.550;2023-07-16T07:47:16;100815.66;;;23.86;50.97
75740;BME280;64357;51.344;6.550;2023-07-16T07:49:42;100789.09;;;23.76;50.56
75740;BME280;64357;51.344;6.550;2023-07-16T07:52:07;100814.34;;;23.96;49.90
75740;BME280;64357;51.344;6.550;2023-07-16T07:54:35;100816.41;;;24.42;49.81
75740;BME280;64357;51.344;6.550;2023-07-16T07:57:01;100802.41;;;24.40;49.06
75740;BME280;64357;51.344;6.550;2023-07-16T07:59:31;100817.84;;;23.97;49.47
75740;BME280;64357;51.344;6.550;2023-07-16T08:01:59;100813.06;;;23.68;49.72
75740;BME280;64357;51.344;6.550;2023-07-16T08:04:29;100823.78;;;23.57;50.11
75740;BME280;64357;51.344;6.550;2023-07-16T08:07:00;100807.41;;;23.22;51.18
75740;BME280;64357;51.344;6.550;2023-07-16T08:09:26;100826.44;;;23.03;52.36
75740;BME280;64357;51.344;6.550;2023-07-16T08:11:54;100812.56;;;23.76;51.06
75740;BME280;64357;51.344;6.550;2023-07-16T08:14:22;100829.19;;;24.16;49.48
75740;BME280;64357;51.344;6.550;2023-07-16T08:16:47;100820.78;;;24.43;48.50
75740;BME280;64357;51.344;6.550;2023-07-16T08:19:13;100829.16;;;25.39;46.21
75740;BME280;64357;51.344;6.550;2023-07-16T08:21:38;100822.38;;;25.21;46.39
75740;BME280;64357;51.344;6.550;2023-07-16T08:24:08;100833.13;;;24.45;47.72
75740;BME280;64357;51.344;6.550;2023-07-16T08:26:36;100841.81;;;24.86;46.71
75740;BME280;64357;51.344;6.550;2023-07-16T08:29:03;100837.28;;;25.24;45.22
75740;BME280;64357;51.344;6.550;2023-07-16T08:31:29;100836.69;;;24.89;46.85
75740;BME280;64357;51.344;6.550;2023-07-16T08:33:54;100835.69;;;25.28;45.27
75740;BME280;64357;51.344;6.550;2023-07-16T08:36:19;100835.50;;;23.83;47.91
75740;BME280;64357;51.344;6.550;2023-07-16T08:38:45;100840.22;;;23.91;48.69
75740;BME280;64357;51.344;6.550;2023-07-16T08:41:10;100838.16;;;23.84;49.02
75740;BME280;64357;51.344;6.550;2023-07-16T08:43:38;100835.94;;;23.74;48.46
75740;BME280;64357;51.344;6.550;2023-07-16T08:46:07;100845.38;;;24.09;47.06
75740;BME280;64357;51.344;6.550;2023-07-16T08:48:32;100837.56;;;23.17;49.53
75740;BME280;64357;51.344;6.550;2023-07-16T08:51:02;100851.03;;;24.18;47.91
75740;BME280;64357;51.344;6.550;2023-07-16T08:53:30;100845.88;;;24.80;46.27
75740;BME280;64357;51.344;6.550;2023-07-16T08:55:58;100845.81;;;23.99;48.32
75740;BME280;64357;51.344;6.550;2023-07-16T08:58:28;100852.84;;;23.63;48.74
75740;BME280;64357;51.344;6.550;2023-07-16T09:00:55;100852.28;;;24.67;46.97
75740;BME280;64357;51.344;6.550;2023-07-16T09:03:23;100859.78;;;25.41;45.12
75740;BME280;64357;51.344;6.550;2023-07-16T09:05:57;100853.41;;;25.35;45.46
75740;BME280;64357;51.344;6.550;2023-07-16T09:08:25;100865.25;;;25.70;44.98
75740;BME280;64357;51.344;6.550;2023-07-16T09:11:00;100848.53;;;26.11;42.71
75740;BME280;64357;51.344;6.550;2023-07-16T09:13:36;100812.59;;;24.96;44.79
75740;BME280;64357;51.344;6.550;2023-07-16T09:16:04;100847.41;;;26.04;42.95
75740;BME280;64357;51.344;6.550;2023-07-16T09:18:31;100822.03;;;25.57;44.30
75740;BME280;64357;51.344;6.550;2023-07-16T09:20:58;100848.06;;;25.99;43.52
75740;BME280;64357;51.344;6.550;2023-07-16T09:23:25;100834.75;;;25.48;43.64
75740;BME280;64357;51.344;6.550;2023-07-16T09:26:00;100856.22;;;26.54;41.86
75740;BME280;64357;51.344;6.550;2023-07-16T09:28:26;100851.72;;;25.37;43.49
75740;BME280;64357;51.344;6.550;2023-07-16T09:31:07;100837.97;;;24.99;44.36
75740;BME280;64357;51.344;6.550;2023-07-16T09:33:33;100857.00;;;24.55;46.15
75740;BME280;64357;51.344;6.550;2023-07-16T09:35:59;100865.31;;;24.07;47.15
75740;BME280;64357;51.344;6.550;2023-07-16T09:38:36;100867.00;;;24.26;47.58
75740;BME280;64357;51.344;6.550;2023-07-16T09:41:17;100855.22;;;23.40;48.65
75740;BME280;64357;51.344;6.550;2023-07-16T09:43:43;100842.16;;;24.54;45.25
75740;BME280;64357;51.344;6.550;2023-07-16T09:46:09;100858.41;;;25.51;43.69
75740;BME280;64357;51.344;6.550;2023-07-16T09:48:35;100863.72;;;24.90;45.00
75740;BME280;64357;51.344;6.550;2023-07-16T09:51:01;100866.63;;;25.17;44.27
75740;BME280;64357;51.344;6.550;2023-07-16T09:53:30;100868.91;;;25.30;43.88
75740;BME280;64357;51.344;6.550;2023-07-16T09:55:56;100860.28;;;25.98;41.97
75740;BME280;64357;51.344;6.550;2023-07-16T09:58:27;100865.41;;;26.19;41.64
75740;BME280;64357;51.344;6.550;2023-07-16T10:00:52;100873.47;;;26.01;42.12
75740;BME280;64357;51.344;6.550;2023-07-16T10:03:18;100870.63;;;24.88;44.24
75740;BME280;64357;51.344;6.550;2023-07-16T10:05:44;100870.81;;;24.13;47.39
75740;BME280;64357;51.344;6.550;2023-07-16T10:08:20;100863.19;;;24.37;45.95
75740;BME280;64357;51.344;6.550;2023-07-16T10:10:56;100869.34;;;25.41;43.88
75740;BME280;64357;51.344;6.550;2023-07-16T10:13:28;100878.91;;;26.79;41.45
75740;BME280;64357;51.344;6.550;2023-07-16T10:16:23;100859.78;;;27.07;39.50
75740;BME280;64357;51.344;6.550;2023-07-16T10:19:08;100866.00;;;27.09;39.07
75740;BME280;64357;51.344;6.550;2023-07-16T10:21:38;100879.38;;;27.44;38.66
75740;BME280;64357;51.344;6.550;2023-07-16T10:24:04;100877.38;;;27.37;38.17
75740;BME280;64357;51.344;6.550;2023-07-16T10:26:30;100873.47;;;26.99;38.67
75740;BME280;64357;51.344;6.550;2023-07-16T10:29:01;100881.25;;;26.22;40.39
75740;BME280;64357;51.344;6.550;2023-07-16T10:31:32;100864.31;;;25.24;41.93
75740;BME280;64357;51.344;6.550;2023-07-16T10:34:04;100873.22;;;24.88;43.55
75740;BME280;64357;51.344;6.550;2023-07-16T10:36:36;100866.72;;;24.78;44.25
75740;BME280;64357;51.344;6.550;2023-07-16T10:39:03;100885.00;;;26.07;41.35
75740;BME280;64357;51.344;6.550;2023-07-16T10:41:30;100877.28;;;26.34;40.72
75740;BME280;64357;51.344;6.550;2023-07-16T10:43:58;100892.56;;;25.99;41.86
75740;BME280;64357;51.344;6.550;2023-07-16T10:46:26;100898.25;;;25.87;41.94
75740;BME280;64357;51.344;6.550;2023-07-16T10:48:58;100900.56;;;25.59;42.29
75740;BME280;64357;51.344;6.550;2023-07-16T10:51:26;100904.88;;;25.79;41.92
75740;BME280;64357;51.344;6.550;2023-07-16T10:53:57;100901.31;;;25.77;41.51
75740;BME280;64357;51.344;6.550;2023-07-16T10:56:25;100903.88;;;25.55;42.58
75740;BME280;64357;51.344;6.550;2023-07-16T10:58:51;100906.47;;;25.32;43.26
75740;BME280;64357;51.344;6.550;2023-07-16T11:01:24;100891.03;;;25.82;41.94
75740;BME280;64357;51.344;6.550;2023-07-16T11:03:50;100899.38;;;25.50;41.66
75740;BME280;64357;51.344;6.550;2023-07-16T11:06:18;100898.91;;;25.17;42.44
75740;BME280;64357;51.344;6.550;2023-07-16T11:08:49;100908.97;;;25.08;42.69
75740;BME280;64357;51.344;6.550;2023-07-16T11:11:28;100887.28;;;23.93;45.18
75740;BME280;64357;51.344;6.550;2023-07-16T11:13:55;100901.06;;;23.90;45.96
75740;BME280;64357;51.344;6.550;2023-07-16T11:16:26;100891.44;;;23.89;45.80
75740;BME280;64357;51.344;6.550;2023-07-16T11:18:53;100894.63;;;24.02;45.84
75740;BME280;64357;51.344;6.550;2023-07-16T11:21:21;100897.66;;;23.74;46.18
75740;BME280;64357;51.344;6.550;2023-07-16T11:23:47;100899.66;;;23.26;47.32
75740;BME280;64357;51.344;6.550;2023-07-16T11:26:14;100908.91;;;23.55;47.11
75740;BME280;64357;51.344;6.550;2023-07-16T11:28:42;100915.19;;;24.33;45.34
75740;BME280;64357;51.344;6.550;2023-07-16T11:31:13;100909.38;;;24.58;45.15
75740;BME280;64357;51.344;6.550;2023-07-16T11:33:42;100918.41;;;24.08;45.82
75740;BME280;64357;51.344;6.550;2023-07-16T11:36:08;100928.44;;;23.99;46.40
75740;BME280;64357;51.344;6.550;2023-07-16T11:38:37;100922.16;;;23.95;47.12
75740;BME280;64357;51.344;6.550;2023-07-16T11:41:02;100922.38;;;24.37;46.01
75740;BME280;64357;51.344;6.550;2023-07-16T11:43:34;100910.44;;;24.05;46.32
75740;BME280;64357;51.344;6.550;2023-07-16T11:45:59;100918.22;;;23.85;47.23
75740;BME280;64357;51.344;6.550;2023-07-16T11:48:25;100923.59;;;23.88;47.26
75740;BME280;64357;51.344;6.550;2023-07-16T11:50:50;100919.69;;;23.80;46.94
75740;BME280;64357;51.344;6.550;2023-07-16T11:53:16;100937.00;;;23.78;46.80
75740;BME280;64357;51.344;6.550;2023-07-16T11:55:42;100934.19;;;23.74;47.17
75740;BME280;64357;51.344;6.550;2023-07-16T11:58:07;100934.63;;;23.83;47.00
75740;BME280;64357;51.344;6.550;2023-07-16T12:00:32;100935.88;;;23.91;47.14
75740;BME280;64357;51.344;6.550;2023-07-16T12:03:07;100921.41;;;23.44;47.85
75740;BME280;64357;51.344;6.550;2023-07-16T12:05:33;100931.84;;;23.44;48.61
75740;BME280;64357;51.344;6.550;2023-07-16T12:08:00;100937.22;;;23.29;48.72
75740;BME280;64357;51.344;6.550;2023-07-16T12:10:46;100927.50;;;23.27;48.71
75740;BME280;64357;51.344;6.550;2023-07-16T12:13:11;100930.72;;;23.57;48.13
75740;BME280;64357;51.344;6.550;2023-07-16T12:15:39;100937.94;;;24.16;47.13
75740;BME280;64357;51.344;6.550;2023-07-16T12:18:15;100914.66;;;23.83;47.10
75740;BME280;64357;51.344;6.550;2023-07-16T12:20:48;100916.38;;;24.02;46.30
75740;BME280;64357;51.344;6.550;2023-07-16T12:23:14;100905.25;;;23.33;47.78
75740;BME280;64357;51.344;6.550;2023-07-16T12:25:42;100937.09;;;23.10;49.25
75740;BME280;64357;51.344;6.550;2023-07-16T12:28:08;100908.63;;;22.80;49.88
75740;BME280;64357;51.344;6.550;2023-07-16T12:30:34;100932.63;;;23.07;50.06
75740;BME280;64357;51.344;6.550;2023-07-16T12:33:00;100956.53;;;22.99;49.62
75740;BME280;64357;51.344;6.550;2023-07-16T12:35:35;100955.59;;;22.98;50.36
75740;BME280;64357;51.344;6.550;2023-07-16T12:38:00;100947.59;;;23.11;49.33
75740;BME280;64357;51.344;6.550;2023-07-16T12:40:28;100951.13;;;22.79;50.18
75740;BME280;64357;51.344;6.550;2023-07-16T12:42:59;100944.63;;;23.22;49.10
75740;BME280;64357;51.344;6.550;2023-07-16T12:45:26;100948.28;;;22.91;49.90
75740;BME280;64357;51.344;6.550;2023-07-16T12:47:55;100950.34;;;22.64;50.60
75740;BME280;64357;51.344;6.550;2023-07-16T12:50:20;100956.03;;;22.90;50.70
75740;BME280;64357;51.344;6.550;2023-07-16T12:52:51;100966.13;;;23.52;49.38
75740;BME280;64357;51.344;6.550;2023-07-16T12:55:21;100964.78;;;23.42;49.00
75740;BME280;64357;51.344;6.550;2023-07-16T12:57:47;100953.97;;;23.00;49.68
75740;BME280;64357;51.344;6.550;2023-07-16T13:00:12;100957.16;;;23.29;48.78
75740;BME280;64357;51.344;6.550;2023-07-16T13:02:41;100963.16;;;23.80;47.73
75740;BME280;64357;51.344;6.550;2023-07-16T13:05:07;100947.59;;;24.36;46.32